Uccle, Belgium
Current Conditions -  °F | °C
As of 5:20 PM on Thursday 18 Dec 2014 (Local Time) from EBBR Reporting Station
Broken Clouds Broken Clouds  
Wind Chill: 54°   Ceiling: 2000
Heat Index: 54°   Visibility: 6mi
Dew Point: 48°   Wind: 24mph
Humidity: 82%   Direction: 240°WSW
Pressure: 29.91"   Gusts: 37mph
Location:  50.79°N, 4.36°E
Report Text: EBBR 181620Z 24021G32KT 9999 SCT015 BKN020 12/09 Q1013 NOSIG
Loading
Personal Weather Stations






























Interactive Weather Map New forecast layout! Learn more

10-Day Weather Forecast

Advertisements
Track Severe Weather on mobile